createdAt,value
2018-03-23T00:01:38.484Z,5.50
2018-03-23T00:04:06.120Z,6.87
2018-03-23T00:06:33.847Z,4.90
2018-03-23T00:09:01.570Z,4.75
2018-03-23T00:11:29.143Z,5.85
2018-03-23T00:13:57.437Z,6.25
2018-03-23T00:16:25.866Z,4.82
2018-03-23T00:18:53.562Z,5.75
2018-03-23T00:21:21.974Z,6.80
2018-03-23T00:23:50.340Z,6.30
2018-03-23T00:26:18.722Z,8.02
2018-03-23T00:28:47.112Z,5.00
2018-03-23T00:31:14.796Z,7.32
2018-03-23T00:33:42.512Z,8.05
2018-03-23T00:36:10.086Z,7.50
2018-03-23T00:38:38.483Z,7.90
2018-03-23T00:41:06.109Z,6.87
2018-03-23T00:43:34.542Z,8.23
2018-03-23T00:46:02.202Z,7.82
2018-03-23T00:48:30.089Z,7.25
2018-03-23T00:50:57.714Z,7.85
2018-03-23T00:53:25.411Z,6.80
2018-03-23T00:55:53.371Z,7.70
2018-03-23T00:58:21.139Z,8.05
2018-03-23T01:00:48.865Z,8.27
2018-03-23T01:03:17.350Z,8.38
2018-03-23T01:05:45.102Z,9.18
2018-03-23T01:08:13.460Z,8.57
2018-03-23T01:10:41.199Z,9.20
2018-03-23T01:13:08.885Z,9.13
2018-03-23T01:15:36.542Z,9.82
2018-03-23T01:18:05.081Z,9.30
2018-03-23T01:20:32.755Z,9.77
2018-03-23T01:23:00.489Z,8.35
2018-03-23T01:25:28.151Z,10.50
2018-03-23T01:27:56.656Z,10.50
2018-03-23T01:30:24.525Z,8.85
2018-03-23T01:32:53.167Z,9.90
2018-03-23T01:35:21.169Z,11.18
2018-03-23T01:37:48.817Z,9.50
2018-03-23T01:40:16.502Z,9.90
2018-03-23T01:42:44.120Z,10.02
2018-03-23T01:45:12.481Z,12.68
2018-03-23T01:47:40.600Z,12.05
2018-03-23T01:50:08.318Z,11.10
2018-03-23T01:52:35.905Z,11.23
2018-03-23T01:55:04.324Z,10.50
2018-03-23T01:57:32.054Z,13.02
2018-03-23T02:00:01.434Z,11.38
2018-03-23T02:02:29.837Z,11.02
2018-03-23T02:04:57.567Z,11.35
2018-03-23T02:07:25.318Z,12.13
2018-03-23T02:09:54.130Z,12.88
2018-03-23T02:12:22.575Z,11.63
2018-03-23T02:14:50.270Z,12.50
2018-03-23T02:17:18.650Z,13.80
2018-03-23T02:19:46.404Z,12.82
2018-03-23T02:22:14.323Z,12.55
2018-03-23T02:24:42.049Z,11.80
2018-03-23T02:27:09.971Z,11.55
2018-03-23T02:29:37.647Z,12.80
2018-03-23T02:32:05.710Z,13.95
2018-03-23T02:34:33.387Z,14.20
2018-03-23T02:37:01.109Z,14.75
2018-03-23T02:39:28.788Z,15.15
2018-03-23T02:41:56.571Z,15.95
2018-03-23T02:44:24.334Z,16.40
2018-03-23T02:46:51.943Z,15.52
2018-03-23T02:49:20.296Z,16.23
2018-03-23T02:51:47.912Z,14.70
2018-03-23T02:54:15.897Z,15.48
2018-03-23T02:56:44.284Z,15.77
2018-03-23T02:59:11.888Z,16.73
2018-03-23T03:01:39.670Z,16.12
2018-03-23T03:04:07.953Z,16.23
2018-03-23T03:06:35.651Z,16.77
2018-03-23T03:09:03.866Z,18.12
2018-03-23T03:11:32.262Z,17.50
2018-03-23T03:14:00.647Z,17.85
2018-03-23T03:16:28.381Z,15.70
2018-03-23T03:18:56.187Z,16.27
2018-03-23T03:21:23.779Z,17.05
2018-03-23T03:23:51.439Z,19.60
2018-03-23T03:28:53.964Z,18.87
2018-03-23T03:31:21.706Z,20.62
2018-03-23T03:33:50.074Z,18.73
2018-03-23T03:36:17.770Z,17.95
2018-03-23T03:38:45.469Z,18.75
2018-03-23T03:41:13.186Z,20.55
2018-03-23T03:43:40.997Z,20.05
2018-03-23T03:46:08.720Z,19.02
2018-03-23T03:48:36.326Z,18.73
2018-03-23T03:51:04.558Z,21.08
2018-03-23T03:53:32.278Z,18.98
2018-03-23T03:56:00.799Z,20.73
2018-03-23T03:58:28.502Z,18.95
2018-03-23T04:00:56.227Z,20.23
2018-03-23T04:03:23.906Z,18.15
2018-03-23T04:05:52.342Z,19.80
2018-03-23T04:08:21.191Z,19.23
2018-03-23T04:10:48.949Z,18.40
2018-03-23T04:13:16.731Z,17.27
2018-03-23T04:15:44.581Z,17.80
2018-03-23T04:18:13.822Z,19.10
2018-03-23T04:20:42.186Z,19.83
2018-03-23T04:23:09.848Z,19.10
2018-03-23T04:25:37.454Z,18.25
2018-03-23T04:28:05.071Z,17.40
2018-03-23T04:30:33.392Z,19.12
2018-03-23T04:33:01.073Z,21.23
2018-03-23T04:35:28.716Z,19.83
2018-03-23T04:37:56.337Z,18.65
2018-03-23T04:40:24.020Z,18.98
2018-03-23T04:42:51.683Z,21.60
2018-03-23T04:45:19.289Z,21.12
2018-03-23T04:47:47.775Z,20.23
2018-03-23T04:50:15.467Z,21.98
2018-03-23T04:52:43.950Z,21.08
2018-03-23T04:55:11.863Z,22.45
2018-03-23T04:57:39.502Z,24.52
2018-03-23T05:00:07.283Z,25.20
2018-03-23T05:02:35.052Z,25.80
2018-03-23T05:05:02.736Z,26.58
2018-03-23T05:07:31.893Z,26.67
2018-03-23T05:09:59.621Z,24.35
2018-03-23T05:12:27.362Z,28.00
2018-03-23T05:14:55.796Z,28.12
2018-03-23T05:17:23.507Z,27.23
2018-03-23T05:19:51.862Z,31.02
2018-03-23T05:22:19.552Z,33.28
2018-03-23T05:24:47.965Z,34.20
2018-03-23T05:27:17.174Z,34.03
2018-03-23T05:29:47.383Z,34.63
2018-03-23T05:32:15.036Z,29.73
2018-03-23T05:34:42.717Z,32.50
2018-03-23T05:37:10.486Z,29.85
2018-03-23T05:39:38.178Z,32.65
2018-03-23T05:42:05.847Z,30.25
2018-03-23T05:44:33.572Z,31.23
2018-03-23T05:47:02.200Z,29.52
2018-03-23T05:49:30.601Z,33.33
2018-03-23T05:51:59.446Z,32.15
2018-03-23T05:54:28.035Z,32.35
2018-03-23T05:56:56.082Z,32.20
2018-03-23T05:59:23.704Z,31.20
2018-03-23T06:01:51.455Z,32.35
2018-03-23T06:04:19.167Z,32.10
2018-03-23T06:06:46.866Z,33.95
2018-03-23T06:09:14.616Z,33.30
2018-03-23T06:11:42.226Z,31.48
2018-03-23T06:14:11.048Z,33.80
2018-03-23T06:16:38.777Z,36.00
2018-03-23T06:19:06.468Z,33.70
2018-03-23T06:21:34.274Z,33.55
2018-03-23T06:24:01.983Z,36.47
2018-03-23T06:26:30.031Z,37.00
2018-03-23T06:28:57.793Z,37.45
2018-03-23T06:31:26.181Z,33.42
2018-03-23T06:33:54.569Z,40.30
2018-03-23T06:36:23.436Z,36.60
2018-03-23T06:38:51.285Z,36.10
2018-03-23T06:41:19.093Z,36.17
2018-03-23T06:43:46.816Z,38.00
2018-03-23T06:46:14.780Z,41.00
2018-03-23T06:48:42.469Z,41.20
2018-03-23T06:51:11.628Z,36.92
2018-03-23T06:53:40.131Z,43.53
2018-03-23T06:56:07.707Z,39.42
2018-03-23T06:58:35.326Z,40.40
2018-03-23T07:01:03.009Z,45.90
2018-03-23T07:03:31.454Z,41.13
2018-03-23T07:06:00.020Z,41.60
2018-03-23T07:08:27.680Z,44.97
2018-03-23T07:10:55.896Z,41.90
2018-03-23T07:13:24.510Z,44.58
2018-03-23T07:15:52.262Z,41.25
2018-03-23T07:18:19.919Z,43.55
2018-03-23T07:20:47.562Z,40.65
2018-03-23T07:23:16.072Z,41.25
2018-03-23T07:25:43.725Z,40.33
2018-03-23T07:28:11.490Z,34.85
2018-03-23T07:30:39.133Z,38.17
2018-03-23T07:33:06.808Z,38.15
2018-03-23T07:35:34.485Z,37.47
2018-03-23T07:38:02.145Z,41.30
2018-03-23T07:40:29.834Z,40.45
2018-03-23T07:42:57.485Z,40.28
2018-03-23T07:45:25.995Z,41.60
2018-03-23T07:47:53.621Z,38.38
2018-03-23T07:50:21.229Z,38.58
2018-03-23T07:52:48.898Z,41.25
2018-03-23T07:55:16.600Z,41.08
2018-03-23T07:57:44.300Z,39.60
2018-03-23T08:00:11.914Z,40.65
2018-03-23T08:02:39.548Z,42.08
2018-03-23T08:05:07.204Z,42.08
2018-03-23T08:07:34.874Z,40.85
2018-03-23T08:10:02.442Z,42.45
2018-03-23T08:12:30.925Z,40.45
2018-03-23T08:14:59.342Z,40.55
2018-03-23T08:17:26.951Z,42.75
2018-03-23T08:19:54.768Z,41.17
2018-03-23T08:22:23.266Z,40.75
2018-03-23T08:24:50.885Z,40.40
2018-03-23T08:27:18.562Z,41.33
2018-03-23T08:29:46.222Z,40.47
2018-03-23T08:32:13.956Z,42.60
2018-03-23T08:34:41.613Z,41.80
2018-03-23T08:37:09.382Z,44.05
2018-03-23T08:39:36.960Z,43.55
2018-03-23T08:42:04.629Z,43.75
2018-03-23T08:44:32.318Z,43.80
2018-03-23T08:47:01.503Z,41.33
2018-03-23T08:49:29.153Z,40.70
2018-03-23T08:51:56.750Z,34.05
2018-03-23T08:54:25.163Z,37.28
2018-03-23T08:56:52.831Z,39.10
2018-03-23T08:59:21.127Z,35.47
2018-03-23T09:01:48.747Z,39.03
2018-03-23T09:04:16.533Z,39.00
2018-03-23T09:06:44.200Z,36.38
2018-03-23T09:09:12.170Z,35.60
2018-03-23T09:11:40.832Z,34.80
2018-03-23T09:14:08.859Z,33.63
2018-03-23T09:16:36.522Z,33.33
2018-03-23T09:19:04.116Z,33.60
2018-03-23T09:21:31.815Z,37.47
2018-03-23T09:24:00.422Z,35.17
2018-03-23T09:26:28.834Z,34.08
2018-03-23T09:28:56.494Z,36.05
2018-03-23T09:31:24.141Z,33.65
2018-03-23T09:33:52.558Z,31.48
2018-03-23T09:36:20.298Z,31.33
2018-03-23T09:38:48.737Z,32.60
2018-03-23T09:41:16.381Z,29.83
2018-03-23T09:43:44.105Z,26.37
2018-03-23T09:46:11.762Z,27.52
2018-03-23T09:48:41.061Z,28.52
2018-03-23T09:51:08.783Z,29.00
2018-03-23T09:53:36.413Z,27.77
2018-03-23T09:56:04.384Z,29.48
2018-03-23T09:58:32.799Z,24.15
2018-03-23T10:01:00.468Z,26.70
2018-03-23T10:03:28.857Z,27.08
2018-03-23T10:05:58.717Z,24.55
2018-03-23T10:08:26.299Z,27.05
2018-03-23T10:10:53.912Z,29.33
2018-03-23T10:13:22.278Z,28.23
2018-03-23T10:15:50.124Z,31.08
2018-03-23T10:18:18.590Z,30.98
2018-03-23T10:20:46.333Z,27.52
2018-03-23T10:23:13.913Z,26.12
2018-03-23T10:25:42.254Z,24.83
2018-03-23T10:28:10.050Z,19.12
2018-03-23T10:30:37.747Z,23.38
2018-03-23T10:33:05.407Z,23.92
2018-03-23T10:35:33.033Z,21.90
2018-03-23T10:38:00.689Z,22.48
2018-03-23T10:40:28.559Z,23.23
2018-03-23T10:42:56.268Z,22.50
2018-03-23T10:45:24.001Z,18.70
2018-03-23T10:47:51.636Z,21.17
2018-03-23T10:50:19.292Z,21.90
2018-03-23T10:52:46.977Z,20.88
2018-03-23T10:55:14.692Z,20.73
2018-03-23T10:57:43.128Z,18.92
2018-03-23T11:00:11.505Z,20.12
2018-03-23T11:02:39.302Z,17.42
2018-03-23T11:05:06.983Z,19.40
2018-03-23T11:07:35.441Z,18.40
2018-03-23T11:10:03.104Z,19.08
2018-03-23T11:12:30.859Z,18.35
2018-03-23T11:14:58.464Z,17.90
2018-03-23T11:17:26.167Z,18.92
2018-03-23T11:19:53.779Z,18.75
2018-03-23T11:22:21.475Z,17.87
2018-03-23T11:24:49.082Z,19.12
2018-03-23T11:27:16.792Z,18.08
2018-03-23T11:29:44.527Z,18.40
2018-03-23T11:32:13.233Z,17.62
2018-03-23T11:34:41.590Z,18.80
2018-03-23T11:37:10.171Z,20.33
2018-03-23T11:39:39.483Z,20.33
2018-03-23T11:42:08.069Z,21.50
2018-03-23T11:44:35.983Z,23.17
2018-03-23T11:47:03.659Z,23.42
2018-03-23T11:49:35.154Z,25.70
2018-03-23T11:52:02.808Z,27.35
2018-03-23T11:54:31.160Z,27.70
2018-03-23T11:56:58.855Z,24.63
2018-03-23T11:59:26.545Z,26.77
2018-03-23T12:01:54.254Z,28.40
2018-03-23T12:04:21.916Z,30.73
2018-03-23T12:06:49.710Z,34.75
2018-03-23T12:09:17.459Z,34.28
2018-03-23T12:11:45.104Z,34.40
2018-03-23T12:14:12.761Z,35.67
2018-03-23T12:16:40.430Z,35.30
2018-03-23T12:19:08.111Z,34.17
2018-03-23T12:21:35.811Z,33.80
2018-03-23T12:24:03.529Z,31.95
2018-03-23T12:26:31.306Z,28.95
2018-03-23T12:28:59.775Z,24.77
2018-03-23T12:31:27.518Z,23.67
2018-03-23T12:33:55.191Z,28.15
2018-03-23T12:36:22.980Z,26.62
2018-03-23T12:38:50.942Z,27.20
2018-03-23T12:41:19.584Z,30.58
2018-03-23T12:43:47.942Z,27.10
2018-03-23T12:46:15.548Z,27.98
2018-03-23T12:48:43.990Z,30.27
2018-03-23T12:51:11.670Z,32.28
2018-03-23T12:53:39.417Z,30.85
2018-03-23T12:56:07.115Z,28.62
2018-03-23T12:58:34.752Z,28.62
2018-03-23T13:01:02.376Z,25.52
2018-03-23T13:03:29.990Z,29.25
2018-03-23T13:05:57.659Z,29.75
2018-03-23T13:08:25.256Z,33.92
2018-03-23T13:10:53.065Z,32.20
2018-03-23T13:13:20.772Z,32.00
2018-03-23T13:15:49.138Z,29.12
2018-03-23T13:18:16.893Z,31.58
2018-03-23T13:20:44.512Z,31.40
2018-03-23T13:23:12.150Z,30.40
2018-03-23T13:25:39.767Z,29.63
2018-03-23T13:28:07.470Z,29.77
2018-03-23T13:30:35.129Z,29.23
2018-03-23T13:33:03.578Z,29.05
2018-03-23T13:35:31.644Z,27.60
2018-03-23T13:38:00.024Z,26.75
2018-03-23T13:40:27.712Z,25.37
2018-03-23T13:42:55.371Z,26.52
2018-03-23T13:45:22.990Z,25.50
2018-03-23T13:47:50.574Z,24.17
2018-03-23T13:50:18.314Z,25.12
2018-03-23T13:52:46.183Z,24.67
2018-03-23T13:55:13.882Z,22.42
2018-03-23T13:57:41.717Z,19.65
2018-03-23T14:13:37.179Z,15.18
2018-03-23T14:16:04.985Z,16.98
2018-03-23T14:18:32.630Z,14.23
2018-03-23T14:21:01.062Z,14.85
2018-03-23T14:23:30.327Z,18.25
2018-03-23T14:25:57.962Z,18.80
2018-03-23T14:28:25.564Z,17.08
2018-03-23T14:30:53.145Z,16.52
2018-03-23T14:33:20.819Z,15.00
2018-03-23T14:35:48.584Z,15.57
2018-03-23T14:38:16.950Z,16.30
2018-03-23T14:40:44.528Z,16.58
2018-03-23T14:43:12.195Z,18.45
2018-03-23T14:45:39.838Z,17.33
2018-03-23T14:48:07.641Z,17.17
2018-03-23T14:50:35.274Z,19.92
2018-03-23T14:53:02.958Z,17.95
2018-03-23T14:55:30.677Z,18.40
2018-03-23T14:57:58.461Z,20.73
2018-03-23T15:00:26.750Z,20.58
2018-03-23T15:02:55.214Z,20.25
2018-03-23T15:05:22.862Z,19.37
2018-03-23T15:07:50.554Z,19.42
2018-03-23T15:10:18.402Z,17.05
2018-03-23T15:12:46.010Z,17.95
2018-03-23T15:15:13.834Z,16.58
2018-03-23T15:17:41.407Z,15.60
2018-03-23T15:20:09.904Z,16.60
2018-03-23T15:22:38.006Z,16.02
2018-03-23T15:25:05.676Z,17.23
2018-03-23T15:27:33.447Z,16.83
2018-03-23T15:30:01.124Z,15.98
2018-03-23T15:32:28.747Z,17.77
2018-03-23T15:34:56.375Z,15.77
2018-03-23T15:37:24.764Z,17.17
2018-03-23T15:39:52.383Z,17.77
2018-03-23T15:42:20.039Z,17.75
2018-03-23T15:44:47.948Z,16.12
2018-03-23T15:47:16.357Z,16.73
2018-03-23T15:49:44.564Z,16.02
2018-03-23T15:52:13.394Z,17.92
2018-03-23T15:54:41.132Z,18.25
2018-03-23T15:57:08.884Z,17.70
2018-03-23T15:59:36.492Z,16.50
2018-03-23T16:02:05.065Z,17.12
2018-03-23T16:04:32.722Z,18.77
2018-03-23T16:07:01.097Z,18.98
2018-03-23T16:09:29.129Z,18.75
2018-03-23T16:11:56.819Z,20.30
2018-03-23T16:14:24.510Z,19.98
2018-03-23T16:16:52.375Z,20.65
2018-03-23T16:19:20.084Z,22.02
2018-03-23T16:21:48.177Z,23.80
2018-03-23T16:24:15.827Z,23.27
2018-03-23T16:26:44.009Z,21.83
2018-03-23T16:29:11.603Z,21.58
2018-03-23T16:31:39.256Z,22.37
2018-03-23T16:34:07.719Z,20.98
2018-03-23T16:36:35.442Z,24.20
2018-03-23T16:39:03.034Z,18.87
2018-03-23T16:41:30.662Z,21.77
2018-03-23T16:43:58.595Z,22.08
2018-03-23T16:46:26.273Z,23.15
2018-03-23T16:48:53.933Z,24.27
2018-03-23T16:51:21.563Z,21.85
2018-03-23T16:53:49.359Z,21.90
2018-03-23T16:56:17.110Z,23.00
2018-03-23T16:58:46.406Z,24.63
2018-03-23T17:01:14.985Z,25.35
2018-03-23T17:03:42.624Z,21.92
2018-03-23T17:06:10.216Z,22.25
2018-03-23T17:08:37.977Z,23.25
2018-03-23T17:11:06.444Z,23.05
2018-03-23T17:13:34.109Z,23.15
2018-03-23T17:16:02.145Z,24.48
2018-03-23T17:18:31.062Z,20.30
2018-03-23T17:20:58.707Z,23.20
2018-03-23T17:23:26.292Z,23.62
2018-03-23T17:25:53.992Z,21.50
2018-03-23T17:28:21.619Z,22.58
2018-03-23T17:30:49.591Z,21.85
2018-03-23T17:33:17.322Z,22.20
2018-03-23T17:35:45.122Z,21.50
2018-03-23T17:38:12.804Z,20.80
2018-03-23T17:40:41.301Z,19.87
2018-03-23T17:43:09.578Z,20.90
2018-03-23T17:45:37.199Z,22.30
2018-03-23T17:48:04.840Z,22.30
2018-03-23T17:50:33.450Z,22.42
2018-03-23T17:53:01.898Z,19.08
2018-03-23T17:55:29.585Z,22.02
2018-03-23T17:57:57.183Z,23.12
2018-03-23T18:00:24.829Z,22.92
2018-03-23T18:02:52.450Z,22.65
2018-03-23T18:05:20.102Z,22.23
2018-03-23T18:07:47.721Z,22.48
2018-03-23T18:10:17.979Z,20.40
2018-03-23T18:12:45.604Z,21.92
2018-03-23T18:15:13.330Z,20.98
2018-03-23T18:17:41.019Z,21.15
2018-03-23T18:20:09.481Z,21.52
2018-03-23T18:22:37.074Z,20.80
2018-03-23T18:25:04.874Z,21.65
2018-03-23T18:27:32.464Z,20.35
2018-03-23T18:30:00.278Z,22.00
2018-03-23T18:32:27.893Z,20.95
2018-03-23T18:34:55.656Z,19.90
2018-03-23T18:37:24.088Z,21.10
2018-03-23T18:39:51.740Z,20.60
2018-03-23T18:42:21.772Z,20.98
2018-03-23T18:44:49.408Z,20.67
2018-03-23T18:47:18.017Z,20.65
2018-03-23T18:49:45.683Z,20.92
2018-03-23T18:52:13.582Z,21.75
2018-03-23T18:54:42.039Z,20.42
2018-03-23T18:57:09.759Z,23.42
2018-03-23T18:59:38.256Z,23.77
2018-03-23T19:02:06.292Z,24.48
2018-03-23T19:04:33.979Z,21.37
2018-03-23T19:07:01.582Z,21.98
2018-03-23T19:09:29.175Z,23.40
2018-03-23T19:11:56.854Z,21.30
2018-03-23T19:14:24.644Z,19.83
2018-03-23T19:16:52.372Z,21.70
2018-03-23T19:19:20.075Z,22.33
2018-03-23T19:21:47.820Z,21.52
2018-03-23T19:24:16.218Z,22.73
2018-03-23T19:26:43.846Z,22.13
2018-03-23T19:29:12.246Z,21.52
2018-03-23T19:31:39.858Z,22.42
2018-03-23T19:34:07.866Z,22.02
2018-03-23T19:36:35.520Z,21.10
2018-03-23T19:39:04.002Z,20.48
2018-03-23T19:41:31.672Z,21.80
2018-03-23T19:43:59.565Z,21.42
2018-03-23T19:46:27.220Z,20.90
2018-03-23T19:48:54.861Z,21.23
2018-03-23T19:51:22.758Z,22.52
2018-03-23T19:53:50.372Z,21.90
2018-03-23T19:56:18.140Z,20.05
2018-03-23T19:58:45.829Z,21.05
2018-03-23T20:01:14.319Z,21.00
2018-03-23T20:03:42.060Z,21.45
2018-03-23T20:06:10.486Z,20.73
2018-03-23T20:08:38.434Z,20.65
2018-03-23T20:11:06.201Z,23.23
2018-03-23T20:13:34.781Z,23.08
2018-03-23T20:16:02.564Z,21.50
2018-03-23T20:18:30.881Z,17.80
2018-03-23T20:21:03.479Z,20.00
2018-03-23T20:23:31.878Z,21.02
2018-03-23T20:26:00.298Z,21.25
2018-03-23T20:28:33.559Z,25.35
2018-03-23T20:31:01.176Z,24.17
2018-03-23T20:33:28.844Z,21.37
2018-03-23T20:35:56.550Z,20.95
2018-03-23T20:38:24.192Z,21.17
2018-03-23T20:40:52.039Z,18.95
2018-03-23T20:43:19.681Z,18.92
2018-03-23T20:45:47.385Z,20.35
2018-03-23T20:48:15.773Z,18.92
2018-03-23T20:50:43.458Z,17.90
2018-03-23T20:53:11.336Z,17.85
2018-03-23T20:55:39.028Z,16.42
2018-03-23T20:58:06.713Z,19.00
2018-03-23T21:00:34.410Z,17.50
2018-03-23T21:03:02.072Z,16.33
2018-03-23T21:05:29.835Z,16.58
2018-03-23T21:07:58.133Z,17.80
2018-03-23T21:10:25.819Z,16.35
2018-03-23T21:12:53.461Z,13.82
2018-03-23T21:15:21.183Z,13.35
2018-03-23T21:17:48.839Z,12.52
2018-03-23T21:20:16.591Z,12.90
2018-03-23T21:22:44.255Z,11.25
2018-03-23T21:25:11.992Z,12.25
2018-03-23T21:27:39.606Z,11.88
2018-03-23T21:30:07.308Z,14.13
2018-03-23T21:32:35.184Z,12.80
2018-03-23T21:35:02.823Z,13.85
2018-03-23T21:37:30.462Z,12.70
2018-03-23T21:39:58.174Z,13.62
2018-03-23T21:42:27.963Z,15.98
2018-03-23T21:44:55.597Z,12.10
2018-03-23T21:47:23.236Z,14.87
2018-03-23T21:49:50.853Z,13.15
2018-03-23T21:52:18.508Z,14.87
2018-03-23T21:54:46.214Z,13.27
2018-03-23T21:57:14.965Z,13.00
2018-03-23T21:59:42.645Z,12.85
2018-03-23T22:02:11.195Z,11.98
2018-03-23T22:04:38.884Z,11.35
2018-03-23T22:07:06.552Z,11.25
2018-03-23T22:09:34.189Z,11.63
2018-03-23T22:12:01.803Z,12.15
2018-03-23T22:14:30.155Z,11.57
2018-03-23T22:16:57.798Z,11.20
2018-03-23T22:19:25.473Z,11.55
2018-03-23T22:21:53.063Z,11.43
2018-03-23T22:24:20.642Z,11.35
2018-03-23T22:26:48.400Z,11.85
2018-03-23T22:29:16.059Z,11.27
2018-03-23T22:31:44.397Z,10.73
2018-03-23T22:34:12.051Z,11.02
2018-03-23T22:36:39.641Z,11.68
2018-03-23T22:39:08.043Z,11.30
2018-03-23T22:41:36.394Z,10.75
2018-03-23T22:44:04.063Z,10.55
2018-03-23T22:46:31.682Z,11.40
2018-03-23T22:48:59.319Z,12.10
2018-03-23T22:51:27.159Z,10.68
2018-03-23T22:53:54.743Z,11.02
2018-03-23T22:56:22.396Z,11.40
2018-03-23T22:58:50.059Z,10.93
2018-03-23T23:01:18.536Z,10.98
2018-03-23T23:03:46.918Z,10.43
2018-03-23T23:06:14.555Z,11.05
2018-03-23T23:08:42.309Z,12.48
2018-03-23T23:11:09.918Z,12.10
2018-03-23T23:13:38.617Z,11.32
2018-03-23T23:16:06.221Z,11.60
2018-03-23T23:18:34.193Z,10.85
2018-03-23T23:21:01.901Z,11.63
2018-03-23T23:23:29.578Z,11.55
2018-03-23T23:25:57.219Z,13.27
2018-03-23T23:28:24.889Z,12.55
2018-03-23T23:30:52.497Z,12.57
2018-03-23T23:33:20.888Z,13.75
2018-03-23T23:35:48.589Z,13.10
2018-03-23T23:38:16.555Z,14.68
2018-03-23T23:40:44.277Z,14.30
2018-03-23T23:43:13.851Z,13.60
2018-03-23T23:45:41.557Z,13.05
2018-03-23T23:48:09.373Z,14.63
2018-03-23T23:50:37.327Z,14.50
2018-03-23T23:53:06.112Z,16.00
2018-03-23T23:55:34.463Z,13.15
2018-03-23T23:58:02.801Z,15.05
